Santa Cruz, CA

4:41 PM PDT on September 16, 2014 (GMT -0700)
Walnut/King | Change Station
CLOSE
Current Station
Personal Weather Station
Location: Santa Cruz, CA
Elevation: 70 ft
Nearby Weather Stations
Active Advisory: Beach Hazard Statement

Elev 70 ft 36.97 °N, 122.04 °W | Updated 1 second ago

Clear
Clear
85.5 °F
Feels Like 86 °F
N
0.0
Wind Variable Wind from WSW
Gusts 6.0 mph

Today
High -- | Low -- °F
--% Chance of Precip.
Yesterday
High -- | Low -- °F
Precip. -- in
6:51 AM 7:14 PM
Last Quarter, 41% visible
Pressure 29.83 in
Visibility 10.0 miles
Clouds Clear
Heat Index 86 °F
Dew Point 61 °F
Humidity 44%
Rainfall 0.00 in
Snow Depth 0 in , 0 in , 0 in
UV 0.0 out of 12
Pollen 5.20 out of 12
Air Quality Not available.
Flu Activity Not available.
METAR KWVI 162253Z AUTO 22005KT 10SM CLR 28/10 A2983 RMK AO2 SLP099 T02780100

More Conditions Fewer Conditions

Pressure 29.83 in
Visibility 10.0 miles
Clouds Clear
Heat Index 86 °F
Dew Point 61 °F
Humidity 44%
Rainfall 0.00 in
Snow Depth 0 in , 0 in , 0 in
UV 0.0 out of 12
Pollen 5.20 out of 12
Air Quality Not available.
Flu Activity Not available.
METAR KWVI 162253Z AUTO 22005KT 10SM CLR 28/10 A2983 RMK AO2 SLP099 T02780100

More Conditions Fewer Conditions

10-Day Weather Forecast

Almanac

Astronomy

Sep. 16, 2014 Rise Set
Actual Time 6:51 AM PDT 7:14 PM PDT
Civil Twilight 6:25 AM PDT 7:39 PM PDT
Nautical Twilight 5:54 AM PDT 8:10 PM PDT
Astronomical Twilight 5:23 AM PDT 8:41 PM PDT
Moon 12:11 AM PDT 2:35 PM PDT
Length of Visible Light 13h 14m
Length of Day
12h 22m
Tomorrow will be 2m 20s shorter.
Last Quarter, 41% of the Moon is Illuminated
Today
Last Quarter
Sep 24
New
Oct 1
First Quarter
Oct 8
Full
Oct 15
Last Quarter

Today's Extremes

State Highs State Lows

Community

WunderPhotos

Upload Photos

1,753,917 photos uploaded!

Nearby

Snow Depth

Station Depth Elevation
Echo Peak 0 in 7800 ft
Leavitt Meadows 0 in 7200 ft
CSS Lab 0 in 6900 ft
Adin Mountain 0 in 6200 ft

Earthquake Activity

City Distance Mag. Time & Date
Cobb, California 131 miles 2.8 1:23 PM PDT
2014-09-16
Cobb, California 134 miles 2.7 11:07 AM PDT
2014-09-14
Minimum magnitude displayed is 2.5.

Coastal Water Temperatures

Place Temperature
Monterey, CA 60.1 °F
Redwood City, CA 73.0 °F

Nearby Weather Stations